Tropical Cyclones
[Index]
Main Index Home Page Stock Weather Photos Extreme Storms Discussion Storm News and Storm Chasing Reports Tropical Cyclones / Hurricanes / Typhoons Weather Data and Links Wild Fires / Bushfires Weather Observation Techniques Weather Picture Catalogue Tornado Pictures and Reports Stock Video Footage and DVDs for sale
Season 2005-2006 Tropical Cyclone 200604 Track Map
Season 2005-2006 Summaries (Operational Data): [AU] [SIO] [SPAC] [SH]
<<- Previous TC | 2005-2006 Season | Next TC ->>

click for intensity scale information  Lat/long Grid: Show Hide

 Date Labels: Show Hide

Operational Tropical Cyclone Data : JTWC Advisories

Name: 200604
Number: 0604

21 Dec 2005 18:00 UTC to 29 Dec 2005 06:00 UTC

    date/time    lat    long     hPa   cat  kts
2005-12-21 18    8.8    91.5     998         30          
2005-12-22 00    9.5    91.9     998         30          
2005-12-22 06    9.9    91.6     998         30          
2005-12-22 12   10.2    91.0     998         30          
2005-12-22 18   10.2    90.6     998         30          
2005-12-23 00   10.5    90.2     998         30          
2005-12-23 06   10.3    89.7     998         30          
2005-12-23 12   10.4    87.9     998         30          
2005-12-23 18   10.5    86.8     998         30          
2005-12-24 00   10.6    86.1     998         30          
2005-12-24 06   11.5    84.8     998         30          
2005-12-24 12   12.1    84.2     999         25          
2005-12-24 18   12.8    82.5     999         25          
2005-12-25 00   13.0    81.0    1000         25          
2005-12-25 06   13.0    79.8    1000         25          
2005-12-25 12   13.6    78.3    1000         25          
2005-12-25 18   13.7    76.7    1002         20          
2005-12-26 00   13.7    75.3    1002         20          
2005-12-26 06   13.5    74.7    1003         20          
2005-12-27 06   15.3    69.8    1000         25          
2005-12-27 12   15.0    68.0    1004         25          
2005-12-28 00   15.6    66.6    1004         25          
2005-12-28 12   17.6    63.9    1005         20          
2005-12-29 00   19.2    61.2    1005         20          
2005-12-29 06   20.5    60.5    1007         20          
Winds are 10-min average.

Tropical cyclone tracks developed by Michael Bath using operational warnings and advisories and Google Maps.


[Australian Severe Weather index] [Copyright Notice] [Email Contacts] [Search This Site] [Privacy Policy]
Document: tropical_cyclone_200604.htm Updated: 28 May 2013